Wetterdaten: Woche 14.04.14 - 20.04.14 (KW16)
Datum Zeit Temp. A. Feuchte A. Luftdruck Regen Wind Richtung Taupunkt Windchill Windben
14.04.2014 00:00 7,7 C 83 % 1015,5 hPa 0,0 l/m 0,0 km/h N 4,9 C 7,7 C 0,0 km/h
14.04.2014 01:00 7,0 C 84 % 1015,2 hPa 0,0 l/m 0,0 km/h N 4,5 C 7,0 C 0,8 km/h
14.04.2014 02:00 5,6 C 84 % 1014,7 hPa 0,0 l/m 0,0 km/h N 3,2 C 5,6 C 0,4 km/h
14.04.2014 03:00 4,7 C 84 % 1014,1 hPa 0,0 l/m 0,0 km/h N 2,2 C 4,7 C 0,0 km/h
14.04.2014 04:00 4,4 C 83 % 1013,6 hPa 0,0 l/m 0,0 km/h N 1,8 C 4,4 C 0,0 km/h
14.04.2014 05:00 4,8 C 82 % 1013,3 hPa 0,0 l/m 0,0 km/h N 1,9 C 4,8 C 0,0 km/h
14.04.2014 06:00 5,8 C 81 % 1012,9 hPa 0,0 l/m 0,0 km/h N 2,7 C 5,8 C 0,8 km/h
14.04.2014 07:00 7,3 C 79 % 1012,8 hPa 0,0 l/m 0,0 km/h N 3,9 C 7,3 C 1,2 km/h
14.04.2014 08:00 10,4 C 75 % 1012,7 hPa 0,0 l/m 4,6 km/h N 6,1 C 10,3 C 18,1 km/h
14.04.2014 09:00 12,7 C 62 % 1013,0 hPa 0,0 l/m 8,1 km/h N 5,5 C 11,7 C 22,9 km/h
14.04.2014 10:00 13,4 C 59 % 1012,7 hPa 0,0 l/m 9,2 km/h N 5,6 C 11,8 C 33,0 km/h
14.04.2014 11:00 14,4 C 55 % 1012,0 hPa 0,0 l/m 14,0 km/h N 5,4 C 10,8 C 41,4 km/h
14.04.2014 12:00 15,4 C 48 % 1011,1 hPa 0,0 l/m 12,3 km/h N 4,5 C 12,6 C 40,6 km/h
14.04.2014 13:00 15,9 C 47 % 1010,3 hPa 0,0 l/m 13,6 km/h N 4,6 C 12,8 C 38,2 km/h
14.04.2014 14:00 15,9 C 47 % 1009,7 hPa 0,0 l/m 14,6 km/h N 4,7 C 12,4 C 39,0 km/h
14.04.2014 15:00 11,3 C 65 % 1010,9 hPa 1,0 l/m 18,0 km/h N 4,5 C 5,8 C 44,2 km/h
14.04.2014 16:00 7,4 C 83 % 1012,2 hPa 4,2 l/m 12,8 km/h N 4,6 C 3,2 C 31,0 km/h
14.04.2014 17:00 6,7 C 83 % 1012,2 hPa 1,6 l/m 8,3 km/h N 4,0 C 5,1 C 24,9 km/h
14.04.2014 18:00 7,5 C 79 % 1011,2 hPa 0,3 l/m 10,6 km/h N 4,1 C 4,6 C 29,4 km/h
14.04.2014 19:00 8,1 C 73 % 1011,0 hPa 0,0 l/m 15,1 km/h N 3,6 C 2,9 C 35,4 km/h
14.04.2014 20:00 8,2 C 69 % 1010,8 hPa 0,0 l/m 19,8 km/h N 2,9 C 1,1 C 40,2 km/h
14.04.2014 21:00 8,0 C 68 % 1011,1 hPa 0,0 l/m 17,0 km/h N 2,5 C 1,9 C 41,5 km/h
14.04.2014 22:00 7,3 C 74 % 1012,5 hPa 0,0 l/m 15,5 km/h N 2,9 C 1,7 C 37,4 km/h
14.04.2014 23:00 6,6 C 79 % 1012,3 hPa 0,0 l/m 14,2 km/h N 3,2 C 1,5 C 29,0 km/h
15.04.2014 00:00 7,0 C 76 % 1012,4 hPa 0,0 l/m 13,6 km/h N 3,0 C 2,5 C 28,2 km/h
15.04.2014 01:00 6,5 C 77 % 1012,2 hPa 0,0 l/m 14,4 km/h N 2,7 C 1,2 C 32,6 km/h
15.04.2014 02:00 6,3 C 75 % 1012,9 hPa 0,0 l/m 12,4 km/h N 2,2 C 2,0 C 30,2 km/h
15.04.2014 03:00 5,9 C 75 % 1013,9 hPa 0,0 l/m 12,5 km/h N 1,8 C 1,6 C 29,8 km/h
15.04.2014 04:00 5,8 C 73 % 1014,7 hPa 0,0 l/m 9,1 km/h N 1,4 C 3,6 C 22,9 km/h
15.04.2014 05:00 5,7 C 72 % 1014,9 hPa 0,0 l/m 13,0 km/h N 1,0 C 0,9 C 29,0 km/h
15.04.2014 06:00 5,2 C 70 % 1015,5 hPa 0,0 l/m 12,2 km/h N 0,1 C 1,0 C 29,8 km/h
15.04.2014 07:00 5,1 C 68 % 1016,3 hPa 0,0 l/m 10,3 km/h N -0,3 C 2,0 C 28,1 km/h
15.04.2014 08:00 5,4 C 68 % 1016,9 hPa 0,0 l/m 11,4 km/h N -0,1 C 1,7 C 28,2 km/h
15.04.2014 09:00 6,3 C 64 % 1016,9 hPa 0,0 l/m 13,0 km/h N -0,0 C 1,6 C 32,2 km/h
15.04.2014 10:00 6,0 C 71 % 1017,0 hPa 0,3 l/m 12,9 km/h N 1,1 C 1,4 C 29,8 km/h
15.04.2014 11:00 6,3 C 75 % 1017,3 hPa 0,0 l/m 16,1 km/h N 2,2 C 0,1 C 36,6 km/h
15.04.2014 12:00 6,6 C 76 % 1017,1 hPa 0,0 l/m 17,6 km/h N 2,7 C -0,1 C 39,8 km/h
15.04.2014 13:00 7,0 C 77 % 1017,1 hPa 0,0 l/m 17,8 km/h N 3,2 C 0,3 C 38,2 km/h
15.04.2014 14:00 6,5 C 79 % 1017,3 hPa 0,3 l/m 16,8 km/h N 3,1 C 0,1 C 39,8 km/h
15.04.2014 15:00 6,0 C 81 % 1017,4 hPa 0,5 l/m 16,5 km/h N 2,9 C -0,4 C 37,8 km/h
15.04.2014 16:00 6,1 C 81 % 1017,6 hPa 0,5 l/m 15,1 km/h N 3,1 C 0,3 C 37,8 km/h
15.04.2014 17:00 5,7 C 83 % 1018,5 hPa 1,3 l/m 10,4 km/h N 2,9 C 2,7 C 27,8 km/h
15.04.2014 18:00 5,1 C 84 % 1018,4 hPa 4,9 l/m 10,0 km/h N 2,6 C 2,2 C 23,7 km/h
15.04.2014 19:00 5,4 C 83 % 1018,4 hPa 0,3 l/m 14,6 km/h N 2,7 C -0,2 C 31,8 km/h
15.04.2014 20:00 5,4 C 81 % 1019,3 hPa 0,0 l/m 14,1 km/h N 2,3 C 0,0 C 31,8 km/h
15.04.2014 21:00 5,1 C 83 % 1020,6 hPa 1,0 l/m 7,8 km/h N 2,4 C 3,5 C 20,9 km/h
15.04.2014 22:00 4,9 C 84 % 1020,6 hPa 0,3 l/m 9,9 km/h N 2,3 C 2,1 C 24,1 km/h
15.04.2014 23:00 5,2 C 81 % 1020,8 hPa 0,0 l/m 11,0 km/h N 2,2 C 1,7 C 27,0 km/h
16.04.2014 00:00 5,1 C 80 % 1020,8 hPa 0,0 l/m 10,3 km/h N 1,9 C 2,0 C 25,0 km/h
16.04.2014 01:00 5,3 C 78 % 1020,8 hPa 0,0 l/m 12,5 km/h N 1,8 C 0,8 C 29,0 km/h
16.04.2014 02:00 5,2 C 77 % 1021,2 hPa 0,0 l/m 12,3 km/h N 1,5 C 0,8 C 29,8 km/h
16.04.2014 03:00 5,0 C 77 % 1021,5 hPa 0,0 l/m 12,8 km/h N 1,3 C 0,3 C 28,6 km/h
16.04.2014 04:00 4,9 C 78 % 1021,9 hPa 0,0 l/m 11,9 km/h N 1,3 C 0,7 C 28,2 km/h
16.04.2014 05:00 4,5 C 81 % 1022,4 hPa 0,3 l/m 11,3 km/h N 1,5 C 0,7 C 25,3 km/h
16.04.2014 06:00 4,2 C 83 % 1022,8 hPa 0,0 l/m 10,9 km/h N 1,6 C 0,5 C 25,0 km/h
16.04.2014 07:00 4,7 C 82 % 1023,1 hPa 0,0 l/m 10,8 km/h N 1,9 C 1,2 C 26,6 km/h
16.04.2014 08:00 5,2 C 82 % 1023,8 hPa 0,0 l/m 7,1 km/h N 2,3 C 4,0 C 18,9 km/h
16.04.2014 09:00 6,0 C 82 % 1024,0 hPa 0,0 l/m 8,5 km/h N 3,1 C 4,4 C 21,7 km/h
16.04.2014 10:00 7,5 C 76 % 1024,2 hPa 0,0 l/m 10,4 km/h N 3,5 C 4,7 C 29,4 km/h
16.04.2014 11:00 7,9 C 75 % 1024,4 hPa 0,0 l/m 9,2 km/h N 3,6 C 5,8 C 22,5 km/h
16.04.2014 12:00 8,3 C 71 % 1024,1 hPa 0,0 l/m 8,6 km/h N 3,4 C 6,7 C 20,9 km/h
16.04.2014 13:00 9,3 C 65 % 1023,9 hPa 0,0 l/m 7,8 km/h N 3,0 C 8,2 C 20,9 km/h
16.04.2014 14:00 9,8 C 63 % 1023,5 hPa 0,0 l/m 8,5 km/h N 3,0 C 8,4 C 22,9 km/h
16.04.2014 15:00 10,1 C 63 % 1023,2 hPa 0,0 l/m 9,9 km/h N 3,3 C 7,8 C 24,1 km/h
16.04.2014 16:00 11,1 C 51 % 1022,9 hPa 0,0 l/m 9,2 km/h N 1,3 C 9,3 C 24,5 km/h
16.04.2014 17:00 9,6 C 60 % 1023,4 hPa 0,3 l/m 6,9 km/h N 2,0 C 8,9 C 21,3 km/h
16.04.2014 18:00 10,3 C 49 % 1023,6 hPa 0,0 l/m 9,7 km/h N -0,1 C 8,1 C 28,2 km/h
16.04.2014 19:00 8,6 C 59 % 1024,6 hPa 0,0 l/m 8,8 km/h N 1,0 C 6,8 C 24,1 km/h
16.04.2014 20:00 6,4 C 65 % 1026,0 hPa 0,0 l/m 9,3 km/h N 0,3 C 4,2 C 25,4 km/h
16.04.2014 21:00 5,3 C 66 % 1026,6 hPa 0,0 l/m 7,2 km/h N -0,5 C 4,6 C 22,9 km/h
16.04.2014 22:00 4,9 C 66 % 1026,6 hPa 0,0 l/m 4,7 km/h N -0,9 C 4,9 C 16,9 km/h
16.04.2014 23:00 4,3 C 69 % 1026,4 hPa 0,0 l/m 4,0 km/h N -1,0 C 4,3 C 12,9 km/h
17.04.2014 00:00 4,3 C 70 % 1026,2 hPa 0,0 l/m 5,9 km/h N -0,7 C 4,3 C 16,9 km/h
17.04.2014 01:00 4,6 C 69 % 1025,9 hPa 0,0 l/m 8,0 km/h N -0,6 C 3,1 C 22,1 km/h
17.04.2014 02:00 4,3 C 70 % 1025,7 hPa 0,0 l/m 7,1 km/h N -0,7 C 3,5 C 20,9 km/h
17.04.2014 03:00 4,2 C 71 % 1025,1 hPa 0,0 l/m 6,6 km/h N -0,7 C 3,7 C 19,7 km/h
17.04.2014 04:00 4,1 C 71 % 1024,8 hPa 0,0 l/m 9,4 km/h N -0,7 C 1,5 C 25,3 km/h
17.04.2014 05:00 4,0 C 71 % 1024,4 hPa 0,0 l/m 12,3 km/h N -0,8 C -0,6 C 26,9 km/h
17.04.2014 06:00 4,0 C 72 % 1024,1 hPa 0,0 l/m 12,6 km/h N -0,7 C -0,7 C 26,5 km/h
17.04.2014 07:00 4,7 C 70 % 1024,5 hPa 0,0 l/m 10,7 km/h N -0,3 C 1,3 C 26,9 km/h
17.04.2014 08:00 6,0 C 67 % 1024,2 hPa 0,0 l/m 10,1 km/h N 0,3 C 3,1 C 25,8 km/h
17.04.2014 09:00 7,6 C 63 % 1023,4 hPa 0,0 l/m 12,8 km/h N 1,0 C 3,4 C 30,6 km/h
17.04.2014 10:00 8,6 C 58 % 1023,6 hPa 0,0 l/m 11,9 km/h N 0,8 C 5,0 C 28,2 km/h
17.04.2014 11:00 9,9 C 56 % 1023,1 hPa 0,0 l/m 10,8 km/h N 1,6 C 7,1 C 28,2 km/h
17.04.2014 12:00 10,6 C 55 % 1022,2 hPa 0,0 l/m 9,4 km/h N 1,9 C 8,7 C 25,4 km/h
17.04.2014 13:00 12,1 C 53 % 1021,1 hPa 0,0 l/m 9,9 km/h N 2,8 C 10,0 C 25,8 km/h
17.04.2014 14:00 13,1 C 48 % 1019,9 hPa 0,0 l/m 10,9 km/h N 2,3 C 10,7 C 28,2 km/h
17.04.2014 15:00 13,4 C 46 % 1018,9 hPa 0,0 l/m 10,4 km/h N 1,8 C 11,1 C 27,8 km/h
17.04.2014 16:00 13,8 C 44 % 1018,3 hPa 0,0 l/m 8,4 km/h N 1,8 C 12,6 C 25,3 km/h
17.04.2014 17:00 13,9 C 43 % 1017,7 hPa 0,0 l/m 7,6 km/h N 1,5 C 13,2 C 20,5 km/h
17.04.2014 18:00 13,2 C 48 % 1017,4 hPa 0,0 l/m 6,8 km/h N 2,3 C 13,0 C 18,9 km/h
17.04.2014 19:00 12,1 C 51 % 1017,4 hPa 0,0 l/m 3,8 km/h N 2,2 C 12,1 C 14,1 km/h
17.04.2014 20:00 10,6 C 56 % 1017,3 hPa 0,0 l/m 1,6 km/h N 2,2 C 10,6 C 6,8 km/h
17.04.2014 21:00 8,7 C 63 % 1017,2 hPa 0,0 l/m 0,4 km/h N 1,9 C 8,7 C 3,2 km/h
17.04.2014 22:00 7,5 C 66 % 1016,7 hPa 0,0 l/m 1,0 km/h N 1,5 C 7,5 C 5,2 km/h
17.04.2014 23:00 6,7 C 66 % 1016,3 hPa 0,0 l/m 0,0 km/h N 0,8 C 6,7 C 0,4 km/h
18.04.2014 00:00 5,3 C 71 % 1015,6 hPa 0,0 l/m 0,0 km/h N 0,5 C 5,3 C 1,2 km/h
18.04.2014 01:00 4,9 C 74 % 1014,9 hPa 0,0 l/m 0,0 km/h N 0,7 C 4,9 C 0,8 km/h
18.04.2014 02:00 4,3 C 76 % 1014,2 hPa 0,0 l/m 0,0 km/h N 0,5 C 4,3 C 0,8 km/h
18.04.2014 03:00 3,3 C 78 % 1013,6 hPa 0,0 l/m 0,0 km/h N -0,1 C 3,3 C 1,2 km/h
18.04.2014 04:00 3,0 C 80 % 1012,9 hPa 0,0 l/m 0,1 km/h N -0,1 C 3,0 C 0,8 km/h
18.04.2014 05:00 2,2 C 81 % 1012,2 hPa 0,0 l/m 0,0 km/h N -0,8 C 2,2 C 0,8 km/h
18.04.2014 06:00 2,0 C 83 % 1011,7 hPa 0,0 l/m 0,2 km/h N -0,7 C 2,0 C 2,4 km/h
18.04.2014 07:00 3,1 C 83 % 1011,4 hPa 0,0 l/m 0,6 km/h N 0,6 C 3,1 C 4,8 km/h
18.04.2014 08:00 6,8 C 75 % 1010,9 hPa 0,0 l/m 1,4 km/h N 2,7 C 6,8 C 5,2 km/h
18.04.2014 09:00 11,3 C 61 % 1010,5 hPa 0,0 l/m 0,5 km/h N 3,9 C 11,3 C 4,0 km/h
18.04.2014 10:00 13,3 C 53 % 1009,8 hPa 0,0 l/m 0,9 km/h N 4,0 C 13,3 C 4,8 km/h
18.04.2014 11:00 15,5 C 46 % 1009,0 hPa 0,0 l/m 2,1 km/h N 3,9 C 15,5 C 7,6 km/h
18.04.2014 12:00 16,5 C 39 % 1008,3 hPa 0,0 l/m 5,0 km/h N 2,4 C 16,5 C 16,5 km/h
18.04.2014 13:00 16,9 C 36 % 1007,9 hPa 0,0 l/m 7,2 km/h N 1,8 C 16,3 C 19,7 km/h
18.04.2014 14:00 17,5 C 35 % 1007,5 hPa 0,0 l/m 9,1 km/h N 1,9 C 16,2 C 24,1 km/h
18.04.2014 15:00 17,3 C 34 % 1007,5 hPa 0,0 l/m 9,9 km/h N 1,3 C 15,8 C 27,0 km/h
18.04.2014 16:00 17,0 C 36 % 1007,3 hPa 0,0 l/m 9,7 km/h N 1,7 C 15,4 C 27,8 km/h
18.04.2014 17:00 15,9 C 37 % 1007,5 hPa 0,0 l/m 10,0 km/h N 1,1 C 14,2 C 25,7 km/h
18.04.2014 18:00 15,1 C 41 % 1007,8 hPa 0,0 l/m 8,5 km/h N 1,8 C 13,9 C 21,3 km/h
18.04.2014 19:00 13,9 C 47 % 1008,4 hPa 0,0 l/m 4,6 km/h N 2,7 C 13,9 C 14,5 km/h
18.04.2014 20:00 12,2 C 53 % 1009,2 hPa 0,0 l/m 2,4 km/h N 2,8 C 12,2 C 8,4 km/h
18.04.2014 21:00 11,3 C 57 % 1009,8 hPa 0,0 l/m 3,8 km/h N 3,1 C 11,3 C 11,7 km/h
18.04.2014 22:00 11,3 C 60 % 1009,8 hPa 0,0 l/m 5,8 km/h N 3,8 C 11,1 C 16,1 km/h
18.04.2014 23:00 10,3 C 64 % 1009,9 hPa 0,0 l/m 6,9 km/h N 3,7 C 9,9 C 22,1 km/h
19.04.2014 00:00 9,3 C 69 % 1009,9 hPa 0,0 l/m 7,4 km/h N 3,8 C 8,5 C 19,7 km/h
19.04.2014 01:00 8,8 C 72 % 1010,1 hPa 0,0 l/m 9,8 km/h N 4,0 C 6,5 C 24,1 km/h
19.04.2014 02:00 8,4 C 74 % 1010,0 hPa 0,0 l/m 8,4 km/h N 3,9 C 6,9 C 24,1 km/h
19.04.2014 03:00 8,0 C 75 % 1009,8 hPa 0,0 l/m 9,8 km/h N 3,8 C 5,6 C 24,1 km/h
19.04.2014 04:00 7,7 C 76 % 1009,7 hPa 0,0 l/m 9,1 km/h N 3,7 C 5,8 C 23,3 km/h
19.04.2014 05:00 7,5 C 76 % 1009,9 hPa 0,0 l/m 8,4 km/h N 3,5 C 6,0 C 22,1 km/h
19.04.2014 06:00 7,6 C 75 % 1010,0 hPa 0,0 l/m 7,9 km/h N 3,5 C 6,4 C 23,3 km/h
19.04.2014 07:00 8,1 C 74 % 1010,2 hPa 0,0 l/m 8,5 km/h N 3,8 C 6,5 C 22,5 km/h
19.04.2014 08:00 8,8 C 73 % 1010,5 hPa 0,0 l/m 10,7 km/h N 4,2 C 5,9 C 25,3 km/h
19.04.2014 09:00 9,5 C 72 % 1010,4 hPa 0,0 l/m 11,0 km/h N 4,8 C 6,5 C 24,1 km/h
19.04.2014 10:00 11,1 C 70 % 1010,0 hPa 0,0 l/m 11,9 km/h N 5,8 C 7,8 C 26,5 km/h
19.04.2014 11:00 12,6 C 67 % 1009,8 hPa 0,0 l/m 11,4 km/h N 6,6 C 9,7 C 25,7 km/h
19.04.2014 12:00 14,3 C 65 % 1009,1 hPa 0,0 l/m 9,5 km/h N 7,7 C 12,6 C 24,5 km/h
19.04.2014 13:00 15,9 C 61 % 1008,3 hPa 0,0 l/m 9,6 km/h N 8,4 C 14,3 C 25,3 km/h
19.04.2014 14:00 16,8 C 59 % 1007,6 hPa 0,0 l/m 9,2 km/h N 8,7 C 15,4 C 24,5 km/h
19.04.2014 15:00 17,6 C 57 % 1006,5 hPa 0,0 l/m 8,5 km/h N 9,0 C 16,6 C 22,1 km/h
19.04.2014 16:00 18,1 C 58 % 1005,9 hPa 0,0 l/m 8,3 km/h N 9,6 C 17,3 C 20,1 km/h
19.04.2014 17:00 14,8 C 76 % 1007,5 hPa 4,2 l/m 3,0 km/h N 10,5 C 14,8 C 13,3 km/h
19.04.2014 18:00 12,9 C 83 % 1007,2 hPa 0,3 l/m 0,6 km/h N 10,1 C 12,9 C 4,0 km/h
19.04.2014 19:00 12,4 C 82 % 1007,0 hPa 1,6 l/m 1,7 km/h N 9,4 C 12,4 C 8,8 km/h
19.04.2014 20:00 11,9 C 82 % 1007,4 hPa 1,0 l/m 0,9 km/h N 8,9 C 11,9 C 6,0 km/h
19.04.2014 21:00 12,2 C 81 % 1008,1 hPa 0,3 l/m 0,4 km/h N 8,9 C 12,2 C 4,0 km/h
19.04.2014 22:00 11,6 C 81 % 1008,5 hPa 4,9 l/m 1,4 km/h N 8,3 C 11,6 C 8,5 km/h
19.04.2014 23:00 10,1 C 82 % 1007,9 hPa 1,3 l/m 0,8 km/h N 7,1 C 10,1 C 7,2 km/h
20.04.2014 00:00 9,8 C 81 % 1008,6 hPa 0,0 l/m 0,0 km/h N 6,7 C 9,8 C 0,8 km/h
20.04.2014 01:00 9,7 C 81 % 1008,6 hPa 0,0 l/m 0,0 km/h N 6,6 C 9,7 C 0,0 km/h
20.04.2014 02:00 9,7 C 80 % 1008,4 hPa 0,0 l/m 0,0 km/h N 6,4 C 9,7 C 0,0 km/h
20.04.2014 03:00 9,4 C 80 % 1008,3 hPa 0,0 l/m 0,0 km/h N 6,1 C 9,4 C 0,4 km/h
20.04.2014 04:00 8,5 C 81 % 1008,3 hPa 0,0 l/m 0,0 km/h N 5,4 C 8,5 C 0,0 km/h
20.04.2014 05:00 7,7 C 81 % 1008,6 hPa 0,0 l/m 0,0 km/h N 4,7 C 7,7 C 0,0 km/h
20.04.2014 06:00 7,1 C 81 % 1008,9 hPa 0,0 l/m 0,0 km/h N 4,0 C 7,1 C 0,0 km/h
20.04.2014 07:00 7,9 C 79 % 1009,4 hPa 0,3 l/m 0,0 km/h N 4,5 C 7,9 C 0,4 km/h
20.04.2014 08:00 9,2 C 78 % 1009,5 hPa 0,0 l/m 0,1 km/h N 5,5 C 9,2 C 2,4 km/h
20.04.2014 09:00 10,4 C 78 % 1009,7 hPa 0,0 l/m 0,5 km/h N 6,7 C 10,4 C 4,4 km/h
20.04.2014 10:00 12,4 C 79 % 1009,9 hPa 0,0 l/m 2,0 km/h N 8,9 C 12,4 C 7,6 km/h
20.04.2014 11:00 13,3 C 75 % 1010,0 hPa 0,0 l/m 0,7 km/h N 8,8 C 13,3 C 5,2 km/h
20.04.2014 12:00 15,1 C 67 % 1009,5 hPa 0,0 l/m 2,2 km/h N 9,0 C 15,1 C 9,7 km/h
20.04.2014 13:00 16,0 C 63 % 1009,2 hPa 0,0 l/m 1,7 km/h N 9,0 C 16,0 C 8,0 km/h
20.04.2014 14:00 16,1 C 62 % 1009,0 hPa 0,0 l/m 1,1 km/h N 8,9 C 16,1 C 6,0 km/h
20.04.2014 15:00 16,0 C 64 % 1008,7 hPa 0,0 l/m 0,8 km/h N 9,1 C 16,0 C 5,6 km/h
20.04.2014 16:00 15,6 C 66 % 1008,5 hPa 0,0 l/m 1,0 km/h N 9,2 C 15,6 C 6,0 km/h
20.04.2014 17:00 15,3 C 65 % 1008,5 hPa 0,0 l/m 4,4 km/h N 8,7 C 14,9 C 14,5 km/h
20.04.2014 18:00 12,9 C 68 % 1008,8 hPa 0,0 l/m 4,6 km/h N 7,1 C 12,6 C 13,3 km/h
20.04.2014 19:00 12,7 C 68 % 1008,5 hPa 0,0 l/m 1,3 km/h N 6,9 C 12,7 C 5,6 km/h
20.04.2014 20:00 12,0 C 76 % 1009,1 hPa 0,3 l/m 3,1 km/h N 7,8 C 12,0 C 9,3 km/h
20.04.2014 21:00 11,1 C 82 % 1009,2 hPa 0,0 l/m 1,1 km/h N 8,2 C 11,1 C 6,0 km/h
20.04.2014 22:00 10,9 C 83 % 1009,3 hPa 0,0 l/m 1,5 km/h N 8,2 C 10,9 C 5,2 km/h
20.04.2014 23:00 10,7 C 83 % 1008,9 hPa 0,0 l/m 0,2 km/h N 8,0 C 10,7 C 2,0 km/h
Min-Datum _ 18.04.14 18.04.14 19.04.14 - 14.04.14 - 16.04.14 17.04.14 14.04.14
_ Min-Zeit 05:30 13:45 16:45 - 00:00 - 23:15 06:00 00:00
Minimum _ 1,9 C 33 % 1005,8 hPa - 0,0 km/h - -1,1 C -1,9 C 0,0 km/h
Max-Datum _ 19.04.14 14.04.14 16.04.14 15.04.14 14.04.14 - 19.04.14 19.04.14 14.04.14
_ Max-Zeit 16:15 00:45 21:45 18:30 15:30 - 17:00 16:45 15:30
Maximum _ 18,4 C 84 % 1026,8 hPa 4,9 l/m 21,6 km/h
N
- 11,3 C 17,9 C 53,1 km/h
N
Durchschnitt _ 9,1 C 69 % 1014,6 hPa #30,9 l/m 7,2 km/h N 3,4 C 7,3 C 19,0 km/h